sensor_id;sensor_type;location;lat;lon;timestamp;P1;durP1;ratioP1;P2;durP2;ratioP2
14066;SDS011;7108;42.684;23.350;2023-03-07T00:01:27;238.45;;;77.22;;
14066;SDS011;7108;42.684;23.350;2023-03-07T00:03:54;218.77;;;72.93;;
14066;SDS011;7108;42.684;23.350;2023-03-07T00:06:21;230.55;;;76.95;;
14066;SDS011;7108;42.684;23.350;2023-03-07T00:08:50;227.43;;;74.97;;
14066;SDS011;7108;42.684;23.350;2023-03-07T00:11:16;227.05;;;77.55;;
14066;SDS011;7108;42.684;23.350;2023-03-07T00:13:42;223.03;;;75.27;;
14066;SDS011;7108;42.684;23.350;2023-03-07T00:16:12;213.20;;;75.25;;
14066;SDS011;7108;42.684;23.350;2023-03-07T00:18:40;229.38;;;77.63;;
14066;SDS011;7108;42.684;23.350;2023-03-07T00:21:07;210.25;;;73.93;;
14066;SDS011;7108;42.684;23.350;2023-03-07T00:23:36;220.20;;;74.65;;
14066;SDS011;7108;42.684;23.350;2023-03-07T00:26:07;222.70;;;74.38;;
14066;SDS011;7108;42.684;23.350;2023-03-07T00:28:41;233.13;;;77.97;;
14066;SDS011;7108;42.684;23.350;2023-03-07T00:31:08;216.20;;;75.37;;
14066;SDS011;7108;42.684;23.350;2023-03-07T00:33:35;213.85;;;76.07;;
14066;SDS011;7108;42.684;23.350;2023-03-07T00:36:34;220.18;;;72.50;;
14066;SDS011;7108;42.684;23.350;2023-03-07T00:38:53;241.52;;;78.07;;
14066;SDS011;7108;42.684;23.350;2023-03-07T00:41:20;247.95;;;79.85;;
14066;SDS011;7108;42.684;23.350;2023-03-07T00:43:48;229.13;;;76.30;;
14066;SDS011;7108;42.684;23.350;2023-03-07T00:46:15;224.07;;;76.50;;
14066;SDS011;7108;42.684;23.350;2023-03-07T00:48:42;228.02;;;75.25;;
14066;SDS011;7108;42.684;23.350;2023-03-07T00:51:11;212.50;;;75.47;;
14066;SDS011;7108;42.684;23.350;2023-03-07T00:53:41;212.00;;;76.43;;
14066;SDS011;7108;42.684;23.350;2023-03-07T00:56:17;214.65;;;75.97;;
14066;SDS011;7108;42.684;23.350;2023-03-07T00:58:45;233.07;;;76.70;;
14066;SDS011;7108;42.684;23.350;2023-03-07T01:01:15;236.05;;;77.88;;
14066;SDS011;7108;42.684;23.350;2023-03-07T01:03:44;220.98;;;77.82;;
14066;SDS011;7108;42.684;23.350;2023-03-07T01:06:14;214.13;;;76.30;;
14066;SDS011;7108;42.684;23.350;2023-03-07T01:08:44;226.43;;;74.15;;
14066;SDS011;7108;42.684;23.350;2023-03-07T01:11:10;205.00;;;73.93;;
14066;SDS011;7108;42.684;23.350;2023-03-07T01:13:37;207.85;;;74.03;;
14066;SDS011;7108;42.684;23.350;2023-03-07T01:16:21;206.13;;;73.27;;
14066;SDS011;7108;42.684;23.350;2023-03-07T01:18:49;222.85;;;74.55;;
14066;SDS011;7108;42.684;23.350;2023-03-07T01:21:18;212.32;;;75.38;;
14066;SDS011;7108;42.684;23.350;2023-03-07T01:23:44;216.10;;;73.40;;
14066;SDS011;7108;42.684;23.350;2023-03-07T01:26:11;208.50;;;74.37;;
14066;SDS011;7108;42.684;23.350;2023-03-07T01:28:38;208.25;;;73.40;;
14066;SDS011;7108;42.684;23.350;2023-03-07T01:31:03;200.37;;;69.53;;
14066;SDS011;7108;42.684;23.350;2023-03-07T01:33:29;196.70;;;70.03;;
14066;SDS011;7108;42.684;23.350;2023-03-07T01:35:54;222.00;;;72.13;;
14066;SDS011;7108;42.684;23.350;2023-03-07T01:38:20;218.27;;;74.63;;
14066;SDS011;7108;42.684;23.350;2023-03-07T01:40:48;249.55;;;78.53;;
14066;SDS011;7108;42.684;23.350;2023-03-07T01:43:28;238.37;;;75.93;;
14066;SDS011;7108;42.684;23.350;2023-03-07T01:48:49;233.63;;;76.18;;
14066;SDS011;7108;42.684;23.350;2023-03-07T01:51:29;200.43;;;71.53;;
14066;SDS011;7108;42.684;23.350;2023-03-07T01:53:56;231.73;;;75.60;;
14066;SDS011;7108;42.684;23.350;2023-03-07T01:56:26;225.90;;;75.40;;
14066;SDS011;7108;42.684;23.350;2023-03-07T01:58:52;224.02;;;76.35;;
14066;SDS011;7108;42.684;23.350;2023-03-07T02:01:19;216.90;;;74.13;;
14066;SDS011;7108;42.684;23.350;2023-03-07T02:03:57;221.40;;;76.00;;
14066;SDS011;7108;42.684;23.350;2023-03-07T02:06:30;213.25;;;74.18;;
14066;SDS011;7108;42.684;23.350;2023-03-07T02:09:02;215.45;;;73.50;;
14066;SDS011;7108;42.684;23.350;2023-03-07T02:11:31;206.80;;;74.43;;
14066;SDS011;7108;42.684;23.350;2023-03-07T02:13:57;240.30;;;76.87;;
14066;SDS011;7108;42.684;23.350;2023-03-07T02:16:22;238.30;;;74.20;;
14066;SDS011;7108;42.684;23.350;2023-03-07T02:18:48;221.23;;;73.00;;
14066;SDS011;7108;42.684;23.350;2023-03-07T02:26:16;237.77;;;78.00;;
14066;SDS011;7108;42.684;23.350;2023-03-07T02:29:00;203.27;;;73.50;;
14066;SDS011;7108;42.684;23.350;2023-03-07T02:31:26;226.85;;;75.07;;
14066;SDS011;7108;42.684;23.350;2023-03-07T02:33:52;249.63;;;77.87;;
14066;SDS011;7108;42.684;23.350;2023-03-07T02:36:20;232.13;;;75.20;;
14066;SDS011;7108;42.684;23.350;2023-03-07T02:38:51;238.05;;;75.90;;
14066;SDS011;7108;42.684;23.350;2023-03-07T02:41:19;239.50;;;78.18;;
14066;SDS011;7108;42.684;23.350;2023-03-07T02:43:49;245.73;;;78.45;;
14066;SDS011;7108;42.684;23.350;2023-03-07T02:46:14;236.77;;;77.83;;
14066;SDS011;7108;42.684;23.350;2023-03-07T02:48:40;220.80;;;77.17;;
14066;SDS011;7108;42.684;23.350;2023-03-07T02:51:05;209.50;;;79.67;;
14066;SDS011;7108;42.684;23.350;2023-03-07T02:53:31;207.70;;;72.87;;
14066;SDS011;7108;42.684;23.350;2023-03-07T02:56:00;218.00;;;74.20;;
14066;SDS011;7108;42.684;23.350;2023-03-07T02:58:25;229.67;;;77.43;;
14066;SDS011;7108;42.684;23.350;2023-03-07T03:00:51;254.53;;;79.77;;
14066;SDS011;7108;42.684;23.350;2023-03-07T03:03:17;240.23;;;77.57;;
14066;SDS011;7108;42.684;23.350;2023-03-07T03:05:42;232.50;;;76.20;;
14066;SDS011;7108;42.684;23.350;2023-03-07T03:08:07;212.57;;;74.93;;
14066;SDS011;7108;42.684;23.350;2023-03-07T03:10:33;207.57;;;73.53;;
14066;SDS011;7108;42.684;23.350;2023-03-07T03:12:58;228.70;;;76.23;;
14066;SDS011;7108;42.684;23.350;2023-03-07T03:15:27;226.82;;;75.45;;
14066;SDS011;7108;42.684;23.350;2023-03-07T03:17:53;248.13;;;78.50;;
14066;SDS011;7108;42.684;23.350;2023-03-07T03:20:19;234.48;;;78.18;;
14066;SDS011;7108;42.684;23.350;2023-03-07T03:22:44;234.63;;;79.43;;
14066;SDS011;7108;42.684;23.350;2023-03-07T03:25:11;213.47;;;78.17;;
14066;SDS011;7108;42.684;23.350;2023-03-07T03:27:37;225.70;;;76.78;;
14066;SDS011;7108;42.684;23.350;2023-03-07T03:30:04;201.23;;;73.70;;
14066;SDS011;7108;42.684;23.350;2023-03-07T03:32:31;211.50;;;76.05;;
14066;SDS011;7108;42.684;23.350;2023-03-07T03:34:57;248.53;;;78.23;;
14066;SDS011;7108;42.684;23.350;2023-03-07T03:37:23;221.30;;;79.50;;
14066;SDS011;7108;42.684;23.350;2023-03-07T03:39:51;229.63;;;76.20;;
14066;SDS011;7108;42.684;23.350;2023-03-07T03:42:20;237.25;;;79.13;;
14066;SDS011;7108;42.684;23.350;2023-03-07T03:44:45;241.70;;;78.45;;
14066;SDS011;7108;42.684;23.350;2023-03-07T03:47:10;226.13;;;78.13;;
14066;SDS011;7108;42.684;23.350;2023-03-07T03:49:37;227.00;;;78.75;;
14066;SDS011;7108;42.684;23.350;2023-03-07T03:52:02;200.87;;;72.07;;
14066;SDS011;7108;42.684;23.350;2023-03-07T03:54:29;211.43;;;74.70;;
14066;SDS011;7108;42.684;23.350;2023-03-07T03:56:55;247.23;;;80.43;;
14066;SDS011;7108;42.684;23.350;2023-03-07T03:59:20;236.00;;;79.50;;
14066;SDS011;7108;42.684;23.350;2023-03-07T04:01:46;240.30;;;78.77;;
14066;SDS011;7108;42.684;23.350;2023-03-07T04:04:15;233.25;;;78.38;;
14066;SDS011;7108;42.684;23.350;2023-03-07T04:06:40;214.80;;;74.90;;
14066;SDS011;7108;42.684;23.350;2023-03-07T04:09:06;218.23;;;76.45;;
14066;SDS011;7108;42.684;23.350;2023-03-07T04:11:33;217.10;;;75.05;;
14066;SDS011;7108;42.684;23.350;2023-03-07T04:13:59;218.23;;;75.75;;
14066;SDS011;7108;42.684;23.350;2023-03-07T04:16:25;223.43;;;74.03;;
14066;SDS011;7108;42.684;23.350;2023-03-07T04:18:51;236.80;;;77.27;;
14066;SDS011;7108;42.684;23.350;2023-03-07T04:21:16;220.43;;;77.00;;
14066;SDS011;7108;42.684;23.350;2023-03-07T04:23:43;236.15;;;77.63;;
14066;SDS011;7108;42.684;23.350;2023-03-07T04:26:09;204.07;;;73.17;;
14066;SDS011;7108;42.684;23.350;2023-03-07T04:28:36;213.07;;;76.32;;
14066;SDS011;7108;42.684;23.350;2023-03-07T04:31:27;220.95;;;75.18;;
14066;SDS011;7108;42.684;23.350;2023-03-07T04:33:53;254.20;;;78.85;;
14066;SDS011;7108;42.684;23.350;2023-03-07T04:36:20;226.88;;;75.85;;
14066;SDS011;7108;42.684;23.350;2023-03-07T04:38:50;254.02;;;80.70;;
14066;SDS011;7108;42.684;23.350;2023-03-07T04:41:22;239.50;;;77.37;;
14066;SDS011;7108;42.684;23.350;2023-03-07T04:43:50;239.48;;;79.78;;
14066;SDS011;7108;42.684;23.350;2023-03-07T04:46:16;224.70;;;75.63;;
14066;SDS011;7108;42.684;23.350;2023-03-07T04:48:43;236.93;;;79.65;;
14066;SDS011;7108;42.684;23.350;2023-03-07T04:51:09;215.15;;;75.85;;
14066;SDS011;7108;42.684;23.350;2023-03-07T04:53:37;211.95;;;73.68;;
14066;SDS011;7108;42.684;23.350;2023-03-07T04:56:06;233.93;;;84.50;;
14066;SDS011;7108;42.684;23.350;2023-03-07T04:58:32;215.25;;;81.18;;
14066;SDS011;7108;42.684;23.350;2023-03-07T05:01:00;249.73;;;85.20;;
14066;SDS011;7108;42.684;23.350;2023-03-07T05:03:27;239.82;;;79.13;;
14066;SDS011;7108;42.684;23.350;2023-03-07T05:05:53;256.23;;;79.60;;
14066;SDS011;7108;42.684;23.350;2023-03-07T05:08:19;233.82;;;77.45;;
14066;SDS011;7108;42.684;23.350;2023-03-07T05:10:45;243.40;;;78.03;;
14066;SDS011;7108;42.684;23.350;2023-03-07T05:13:11;240.93;;;76.60;;
14066;SDS011;7108;42.684;23.350;2023-03-07T05:15:39;221.30;;;76.35;;
14066;SDS011;7108;42.684;23.350;2023-03-07T05:18:05;208.73;;;75.07;;
14066;SDS011;7108;42.684;23.350;2023-03-07T05:20:31;217.30;;;77.27;;
14066;SDS011;7108;42.684;23.350;2023-03-07T05:22:57;251.68;;;78.38;;
14066;SDS011;7108;42.684;23.350;2023-03-07T05:25:23;217.30;;;75.47;;
14066;SDS011;7108;42.684;23.350;2023-03-07T05:27:49;237.93;;;78.23;;
14066;SDS011;7108;42.684;23.350;2023-03-07T05:30:14;241.90;;;80.07;;
14066;SDS011;7108;42.684;23.350;2023-03-07T05:32:40;222.70;;;75.83;;
14066;SDS011;7108;42.684;23.350;2023-03-07T05:35:07;241.37;;;79.07;;
14066;SDS011;7108;42.684;23.350;2023-03-07T05:37:34;216.05;;;77.32;;
14066;SDS011;7108;42.684;23.350;2023-03-07T05:40:00;233.13;;;76.67;;
14066;SDS011;7108;42.684;23.350;2023-03-07T05:42:25;221.20;;;75.20;;
14066;SDS011;7108;42.684;23.350;2023-03-07T05:44:51;250.60;;;80.03;;
14066;SDS011;7108;42.684;23.350;2023-03-07T05:47:16;245.30;;;79.83;;
14066;SDS011;7108;42.684;23.350;2023-03-07T05:49:42;247.47;;;76.93;;
14066;SDS011;7108;42.684;23.350;2023-03-07T05:52:07;206.17;;;72.67;;
14066;SDS011;7108;42.684;23.350;2023-03-07T05:54:33;209.37;;;74.13;;
14066;SDS011;7108;42.684;23.350;2023-03-07T05:56:58;224.27;;;75.60;;
14066;SDS011;7108;42.684;23.350;2023-03-07T05:59:24;239.00;;;79.23;;
14066;SDS011;7108;42.684;23.350;2023-03-07T06:01:49;252.13;;;77.07;;
14066;SDS011;7108;42.684;23.350;2023-03-07T06:04:15;251.77;;;80.70;;
14066;SDS011;7108;42.684;23.350;2023-03-07T06:06:40;221.67;;;75.37;;
14066;SDS011;7108;42.684;23.350;2023-03-07T06:09:06;219.53;;;77.13;;
14066;SDS011;7108;42.684;23.350;2023-03-07T06:11:34;205.37;;;72.97;;
14066;SDS011;7108;42.684;23.350;2023-03-07T06:14:00;230.05;;;75.40;;
14066;SDS011;7108;42.684;23.350;2023-03-07T06:16:25;243.37;;;76.87;;
14066;SDS011;7108;42.684;23.350;2023-03-07T06:18:51;253.03;;;76.97;;
14066;SDS011;7108;42.684;23.350;2023-03-07T06:21:17;240.67;;;77.07;;
14066;SDS011;7108;42.684;23.350;2023-03-07T06:23:43;242.15;;;78.65;;
14066;SDS011;7108;42.684;23.350;2023-03-07T06:26:09;205.38;;;74.68;;
14066;SDS011;7108;42.684;23.350;2023-03-07T06:28:36;215.38;;;80.00;;
14066;SDS011;7108;42.684;23.350;2023-03-07T06:31:08;219.55;;;74.68;;
14066;SDS011;7108;42.684;23.350;2023-03-07T06:33:35;212.73;;;73.63;;
14066;SDS011;7108;42.684;23.350;2023-03-07T06:36:08;233.73;;;76.07;;
14066;SDS011;7108;42.684;23.350;2023-03-07T06:38:37;216.07;;;76.57;;
14066;SDS011;7108;42.684;23.350;2023-03-07T06:41:03;286.37;;;83.00;;
14066;SDS011;7108;42.684;23.350;2023-03-07T06:43:29;225.50;;;76.33;;
14066;SDS011;7108;42.684;23.350;2023-03-07T06:45:54;264.00;;;80.40;;
14066;SDS011;7108;42.684;23.350;2023-03-07T06:48:25;263.95;;;85.72;;
14066;SDS011;7108;42.684;23.350;2023-03-07T06:50:50;283.27;;;85.67;;
14066;SDS011;7108;42.684;23.350;2023-03-07T06:53:17;290.70;;;85.23;;
14066;SDS011;7108;42.684;23.350;2023-03-07T06:55:46;255.03;;;81.53;;
14066;SDS011;7108;42.684;23.350;2023-03-07T06:58:12;272.53;;;83.33;;
14066;SDS011;7108;42.684;23.350;2023-03-07T07:00:38;238.77;;;81.17;;
14066;SDS011;7108;42.684;23.350;2023-03-07T07:03:03;275.53;;;84.90;;
14066;SDS011;7108;42.684;23.350;2023-03-07T07:05:29;251.03;;;82.37;;
14066;SDS011;7108;42.684;23.350;2023-03-07T07:07:54;293.43;;;86.07;;
14066;SDS011;7108;42.684;23.350;2023-03-07T07:10:19;271.63;;;83.70;;
14066;SDS011;7108;42.684;23.350;2023-03-07T07:12:45;260.40;;;81.57;;
14066;SDS011;7108;42.684;23.350;2023-03-07T07:15:11;262.90;;;83.97;;
14066;SDS011;7108;42.684;23.350;2023-03-07T07:17:36;227.77;;;81.13;;
14066;SDS011;7108;42.684;23.350;2023-03-07T07:20:05;279.23;;;84.77;;
14066;SDS011;7108;42.684;23.350;2023-03-07T07:22:34;266.60;;;85.57;;
14066;SDS011;7108;42.684;23.350;2023-03-07T07:25:02;299.57;;;90.70;;
14066;SDS011;7108;42.684;23.350;2023-03-07T07:27:28;260.00;;;87.00;;
14066;SDS011;7108;42.684;23.350;2023-03-07T07:29:54;279.23;;;88.73;;
14066;SDS011;7108;42.684;23.350;2023-03-07T07:32:19;295.70;;;92.43;;
14066;SDS011;7108;42.684;23.350;2023-03-07T07:34:44;252.93;;;88.33;;
14066;SDS011;7108;42.684;23.350;2023-03-07T07:37:13;299.17;;;93.47;;
14066;SDS011;7108;42.684;23.350;2023-03-07T07:39:38;262.10;;;89.30;;
14066;SDS011;7108;42.684;23.350;2023-03-07T07:42:10;282.53;;;99.27;;
14066;SDS011;7108;42.684;23.350;2023-03-07T07:44:35;258.13;;;91.53;;
14066;SDS011;7108;42.684;23.350;2023-03-07T07:47:01;292.33;;;95.27;;
14066;SDS011;7108;42.684;23.350;2023-03-07T07:49:26;288.23;;;92.33;;
14066;SDS011;7108;42.684;23.350;2023-03-07T07:51:52;320.63;;;95.40;;
14066;SDS011;7108;42.684;23.350;2023-03-07T07:54:18;271.43;;;86.60;;
14066;SDS011;7108;42.684;23.350;2023-03-07T07:56:46;285.53;;;86.80;;
14066;SDS011;7108;42.684;23.350;2023-03-07T07:59:12;291.37;;;85.70;;
14066;SDS011;7108;42.684;23.350;2023-03-07T08:01:37;263.07;;;82.40;;
14066;SDS011;7108;42.684;23.350;2023-03-07T08:04:03;263.20;;;80.17;;
14066;SDS011;7108;42.684;23.350;2023-03-07T08:06:32;257.40;;;81.33;;
14066;SDS011;7108;42.684;23.350;2023-03-07T08:08:57;273.20;;;81.90;;
14066;SDS011;7108;42.684;23.350;2023-03-07T08:11:24;293.80;;;84.67;;
14066;SDS011;7108;42.684;23.350;2023-03-07T08:13:50;294.93;;;85.23;;
14066;SDS011;7108;42.684;23.350;2023-03-07T08:16:17;283.17;;;84.57;;
14066;SDS011;7108;42.684;23.350;2023-03-07T08:18:51;303.33;;;87.03;;
14066;SDS011;7108;42.684;23.350;2023-03-07T08:21:18;293.43;;;89.70;;
14066;SDS011;7108;42.684;23.350;2023-03-07T08:23:45;308.33;;;86.90;;
14066;SDS011;7108;42.684;23.350;2023-03-07T08:26:11;283.80;;;85.77;;
14066;SDS011;7108;42.684;23.350;2023-03-07T08:28:37;272.47;;;82.27;;
14066;SDS011;7108;42.684;23.350;2023-03-07T08:31:07;288.23;;;83.13;;
14066;SDS011;7108;42.684;23.350;2023-03-07T08:33:38;254.27;;;85.60;;
14066;SDS011;7108;42.684;23.350;2023-03-07T08:36:04;264.60;;;86.37;;
14066;SDS011;7108;42.684;23.350;2023-03-07T08:38:31;262.30;;;84.77;;
14066;SDS011;7108;42.684;23.350;2023-03-07T08:41:00;300.33;;;89.67;;
14066;SDS011;7108;42.684;23.350;2023-03-07T08:43:30;253.87;;;81.80;;
14066;SDS011;7108;42.684;23.350;2023-03-07T08:45:57;303.93;;;87.60;;
14066;SDS011;7108;42.684;23.350;2023-03-07T08:48:25;310.50;;;87.67;;
14066;SDS011;7108;42.684;23.350;2023-03-07T08:50:51;302.20;;;89.37;;
14066;SDS011;7108;42.684;23.350;2023-03-07T08:53:17;282.13;;;83.67;;
14066;SDS011;7108;42.684;23.350;2023-03-07T08:55:43;277.77;;;83.47;;
14066;SDS011;7108;42.684;23.350;2023-03-07T08:58:09;231.43;;;79.17;;
14066;SDS011;7108;42.684;23.350;2023-03-07T09:00:36;236.67;;;79.97;;
14066;SDS011;7108;42.684;23.350;2023-03-07T09:03:02;258.93;;;82.83;;
14066;SDS011;7108;42.684;23.350;2023-03-07T09:05:28;230.27;;;77.77;;
14066;SDS011;7108;42.684;23.350;2023-03-07T09:07:54;274.73;;;83.37;;
14066;SDS011;7108;42.684;23.350;2023-03-07T09:10:20;253.63;;;80.60;;
14066;SDS011;7108;42.684;23.350;2023-03-07T09:12:46;256.13;;;81.47;;
14066;SDS011;7108;42.684;23.350;2023-03-07T09:15:15;285.27;;;87.47;;
14066;SDS011;7108;42.684;23.350;2023-03-07T09:17:41;248.33;;;80.67;;
14066;SDS011;7108;42.684;23.350;2023-03-07T09:20:07;242.20;;;82.17;;
14066;SDS011;7108;42.684;23.350;2023-03-07T09:22:34;251.43;;;82.30;;
14066;SDS011;7108;42.684;23.350;2023-03-07T09:24:59;263.23;;;81.53;;
14066;SDS011;7108;42.684;23.350;2023-03-07T09:27:25;271.00;;;84.13;;
14066;SDS011;7108;42.684;23.350;2023-03-07T09:29:50;266.53;;;83.90;;
14066;SDS011;7108;42.684;23.350;2023-03-07T09:32:16;242.40;;;82.27;;
14066;SDS011;7108;42.684;23.350;2023-03-07T09:34:41;245.87;;;84.10;;
14066;SDS011;7108;42.684;23.350;2023-03-07T09:37:07;241.53;;;79.40;;
14066;SDS011;7108;42.684;23.350;2023-03-07T09:39:32;220.43;;;79.00;;
14066;SDS011;7108;42.684;23.350;2023-03-07T09:42:05;256.73;;;80.63;;
14066;SDS011;7108;42.684;23.350;2023-03-07T09:50:03;257.27;;;81.37;;
14066;SDS011;7108;42.684;23.350;2023-03-07T09:52:38;228.10;;;79.50;;
14066;SDS011;7108;42.684;23.350;2023-03-07T09:55:16;259.43;;;81.33;;
14066;SDS011;7108;42.684;23.350;2023-03-07T09:57:50;269.63;;;85.13;;
14066;SDS011;7108;42.684;23.350;2023-03-07T10:05:36;240.00;;;81.63;;
14066;SDS011;7108;42.684;23.350;2023-03-07T10:08:05;251.80;;;82.83;;
14066;SDS011;7108;42.684;23.350;2023-03-07T10:10:40;234.93;;;81.00;;
14066;SDS011;7108;42.684;23.350;2023-03-07T10:16:30;277.57;;;86.77;;
14066;SDS011;7108;42.684;23.350;2023-03-07T10:27:36;232.57;;;80.60;;
14066;SDS011;7108;42.684;23.350;2023-03-07T10:30:08;247.27;;;80.27;;
14066;SDS011;7108;42.684;23.350;2023-03-07T10:32:46;270.03;;;85.17;;
14066;SDS011;7108;42.684;23.350;2023-03-07T10:35:14;268.03;;;85.37;;
14066;SDS011;7108;42.684;23.350;2023-03-07T10:38:05;264.27;;;85.17;;
14066;SDS011;7108;42.684;23.350;2023-03-07T10:40:49;249.80;;;85.07;;
14066;SDS011;7108;42.684;23.350;2023-03-07T10:45:47;255.80;;;85.43;;
14066;SDS011;7108;42.684;23.350;2023-03-07T10:48:14;271.50;;;86.37;;
14066;SDS011;7108;42.684;23.350;2023-03-07T10:51:05;266.87;;;83.13;;
14066;SDS011;7108;42.684;23.350;2023-03-07T10:53:48;251.83;;;85.00;;
14066;SDS011;7108;42.684;23.350;2023-03-07T10:56:15;268.43;;;85.47;;
14066;SDS011;7108;42.684;23.350;2023-03-07T10:59:04;259.20;;;83.07;;
14066;SDS011;7108;42.684;23.350;2023-03-07T11:01:30;251.70;;;87.33;;
14066;SDS011;7108;42.684;23.350;2023-03-07T11:03:59;278.67;;;89.70;;
14066;SDS011;7108;42.684;23.350;2023-03-07T11:09:06;271.40;;;88.60;;
14066;SDS011;7108;42.684;23.350;2023-03-07T11:11:54;293.00;;;90.77;;
14066;SDS011;7108;42.684;23.350;2023-03-07T11:14:29;273.17;;;84.93;;
14066;SDS011;7108;42.684;23.350;2023-03-07T11:17:16;265.00;;;85.40;;
14066;SDS011;7108;42.684;23.350;2023-03-07T11:19:45;259.27;;;85.03;;
14066;SDS011;7108;42.684;23.350;2023-03-07T11:24:55;275.90;;;85.40;;
14066;SDS011;7108;42.684;23.350;2023-03-07T11:27:38;241.93;;;84.63;;
14066;SDS011;7108;42.684;23.350;2023-03-07T11:32:53;282.33;;;91.37;;
14066;SDS011;7108;42.684;23.350;2023-03-07T11:44:09;261.40;;;86.03;;
14066;SDS011;7108;42.684;23.350;2023-03-07T11:46:56;283.57;;;88.83;;
14066;SDS011;7108;42.684;23.350;2023-03-07T11:49:29;264.27;;;87.90;;
14066;SDS011;7108;42.684;23.350;2023-03-07T11:52:34;286.00;;;90.00;;
14066;SDS011;7108;42.684;23.350;2023-03-07T12:09:21;260.37;;;95.73;;
14066;SDS011;7108;42.684;23.350;2023-03-07T12:26:54;259.07;;;90.67;;
14066;SDS011;7108;42.684;23.350;2023-03-07T12:29:36;242.27;;;89.87;;
14066;SDS011;7108;42.684;23.350;2023-03-07T12:32:07;265.80;;;97.50;;
14066;SDS011;7108;42.684;23.350;2023-03-07T12:34:41;241.60;;;91.23;;
14066;SDS011;7108;42.684;23.350;2023-03-07T12:37:21;285.67;;;100.63;;
14066;SDS011;7108;42.684;23.350;2023-03-07T12:39:52;271.20;;;96.23;;
14066;SDS011;7108;42.684;23.350;2023-03-07T12:44:59;287.70;;;104.47;;
14066;SDS011;7108;42.684;23.350;2023-03-07T12:50:36;272.43;;;94.67;;
14066;SDS011;7108;42.684;23.350;2023-03-07T12:56:31;266.10;;;90.53;;
14066;SDS011;7108;42.684;23.350;2023-03-07T12:59:23;279.13;;;89.90;;
14066;SDS011;7108;42.684;23.350;2023-03-07T13:02:09;262.87;;;86.30;;
14066;SDS011;7108;42.684;23.350;2023-03-07T13:04:40;256.33;;;91.37;;
14066;SDS011;7108;42.684;23.350;2023-03-07T13:07:08;281.07;;;92.83;;
14066;SDS011;7108;42.684;23.350;2023-03-07T13:09:54;246.77;;;83.00;;
14066;SDS011;7108;42.684;23.350;2023-03-07T13:14:56;256.73;;;93.07;;
14066;SDS011;7108;42.684;23.350;2023-03-07T13:30:21;270.37;;;93.00;;
14066;SDS011;7108;42.684;23.350;2023-03-07T13:53:21;314.30;;;99.93;;
14066;SDS011;7108;42.684;23.350;2023-03-07T13:55:57;303.43;;;91.90;;
14066;SDS011;7108;42.684;23.350;2023-03-07T13:58:33;292.47;;;93.47;;
14066;SDS011;7108;42.684;23.350;2023-03-07T14:01:03;286.63;;;93.43;;
14066;SDS011;7108;42.684;23.350;2023-03-07T14:03:44;279.13;;;90.77;;
14066;SDS011;7108;42.684;23.350;2023-03-07T14:08:44;303.37;;;97.20;;
14066;SDS011;7108;42.684;23.350;2023-03-07T14:22:14;310.43;;;92.77;;
14066;SDS011;7108;42.684;23.350;2023-03-07T14:27:14;306.80;;;91.27;;
14066;SDS011;7108;42.684;23.350;2023-03-07T14:29:51;319.20;;;92.83;;
14066;SDS011;7108;42.684;23.350;2023-03-07T14:32:26;321.50;;;95.20;;
14066;SDS011;7108;42.684;23.350;2023-03-07T14:34:55;321.27;;;96.33;;
14066;SDS011;7108;42.684;23.350;2023-03-07T14:37:23;313.07;;;92.97;;
14066;SDS011;7108;42.684;23.350;2023-03-07T14:42:48;249.07;;;86.80;;
14066;SDS011;7108;42.684;23.350;2023-03-07T14:45:55;318.37;;;108.63;;
14066;SDS011;7108;42.684;23.350;2023-03-07T14:51:14;322.43;;;97.67;;
14066;SDS011;7108;42.684;23.350;2023-03-07T14:53:44;305.83;;;92.60;;
14066;SDS011;7108;42.684;23.350;2023-03-07T14:56:13;270.30;;;95.03;;
14066;SDS011;7108;42.684;23.350;2023-03-07T14:58:46;282.97;;;89.10;;
14066;SDS011;7108;42.684;23.350;2023-03-07T15:01:16;325.70;;;95.00;;
14066;SDS011;7108;42.684;23.350;2023-03-07T15:03:50;301.90;;;89.87;;
14066;SDS011;7108;42.684;23.350;2023-03-07T15:06:19;303.60;;;91.27;;
14066;SDS011;7108;42.684;23.350;2023-03-07T15:08:49;285.83;;;86.90;;
14066;SDS011;7108;42.684;23.350;2023-03-07T15:14:19;303.63;;;90.67;;
14066;SDS011;7108;42.684;23.350;2023-03-07T15:17:03;283.30;;;87.07;;
14066;SDS011;7108;42.684;23.350;2023-03-07T15:19:44;260.07;;;84.73;;
14066;SDS011;7108;42.684;23.350;2023-03-07T15:22:29;308.90;;;90.20;;
14066;SDS011;7108;42.684;23.350;2023-03-07T15:25:03;255.67;;;83.17;;
14066;SDS011;7108;42.684;23.350;2023-03-07T15:27:30;299.27;;;88.93;;
14066;SDS011;7108;42.684;23.350;2023-03-07T15:29:57;325.83;;;91.73;;
14066;SDS011;7108;42.684;23.350;2023-03-07T15:37:32;273.43;;;89.30;;
14066;SDS011;7108;42.684;23.350;2023-03-07T15:42:26;285.93;;;88.43;;
14066;SDS011;7108;42.684;23.350;2023-03-07T15:44:53;271.30;;;84.63;;
14066;SDS011;7108;42.684;23.350;2023-03-07T15:47:23;264.77;;;85.30;;
14066;SDS011;7108;42.684;23.350;2023-03-07T15:49:50;281.17;;;85.20;;
14066;SDS011;7108;42.684;23.350;2023-03-07T15:52:35;266.87;;;83.33;;
14066;SDS011;7108;42.684;23.350;2023-03-07T15:55:06;269.13;;;89.77;;
14066;SDS011;7108;42.684;23.350;2023-03-07T16:00:34;267.40;;;84.33;;
14066;SDS011;7108;42.684;23.350;2023-03-07T16:03:46;287.93;;;86.90;;
14066;SDS011;7108;42.684;23.350;2023-03-07T16:05:51;306.00;;;90.43;;
14066;SDS011;7108;42.684;23.350;2023-03-07T16:08:18;300.33;;;91.03;;
14066;SDS011;7108;42.684;23.350;2023-03-07T16:10:57;300.40;;;91.33;;
14066;SDS011;7108;42.684;23.350;2023-03-07T16:13:29;280.90;;;88.23;;
14066;SDS011;7108;42.684;23.350;2023-03-07T16:15:57;321.67;;;89.73;;
14066;SDS011;7108;42.684;23.350;2023-03-07T16:18:27;322.43;;;90.53;;
14066;SDS011;7108;42.684;23.350;2023-03-07T16:20:54;290.73;;;89.53;;
14066;SDS011;7108;42.684;23.350;2023-03-07T16:23:20;307.30;;;94.87;;
14066;SDS011;7108;42.684;23.350;2023-03-07T16:25:45;275.60;;;85.50;;
14066;SDS011;7108;42.684;23.350;2023-03-07T16:28:11;357.20;;;93.83;;
14066;SDS011;7108;42.684;23.350;2023-03-07T16:30:38;293.30;;;87.30;;
14066;SDS011;7108;42.684;23.350;2023-03-07T16:33:11;293.30;;;88.50;;
14066;SDS011;7108;42.684;23.350;2023-03-07T16:35:37;297.67;;;84.73;;
14066;SDS011;7108;42.684;23.350;2023-03-07T16:38:06;313.67;;;91.13;;
14066;SDS011;7108;42.684;23.350;2023-03-07T16:40:32;281.17;;;83.27;;
14066;SDS011;7108;42.684;23.350;2023-03-07T16:43:00;290.07;;;105.03;;
14066;SDS011;7108;42.684;23.350;2023-03-07T16:45:27;300.77;;;91.03;;
14066;SDS011;7108;42.684;23.350;2023-03-07T16:50:55;305.73;;;85.30;;
14066;SDS011;7108;42.684;23.350;2023-03-07T16:53:20;297.57;;;86.10;;
14066;SDS011;7108;42.684;23.350;2023-03-07T16:55:45;294.00;;;98.73;;
14066;SDS011;7108;42.684;23.350;2023-03-07T16:58:22;302.30;;;84.07;;
14066;SDS011;7108;42.684;23.350;2023-03-07T17:00:50;280.33;;;87.17;;
14066;SDS011;7108;42.684;23.350;2023-03-07T17:03:17;317.13;;;87.17;;